Time;durP1;ratioP1;P1;durP2;ratioP2;P2;SDS_P1;SDS_P2;PMS_P1;PMS_P2;Temp;Humidity;BMP_temperature;BMP_pressure;BME280_temperature;BME280_humidity;BME280_pressure;Samples;Min_cycle;Max_cycle;Signal;HPM_P1;HPM_P2
2022/08/07 00:01:27;;;;;;;10.10;9.00;;;;;;;19.71;80.35;97309.59;110323;1247;69545;-73
2022/08/07 00:04:16;;;;;;;9.70;7.90;;;;;;;19.61;80.57;97305.22;110202;1247;69603;-74
2022/08/07 00:06:52;;;;;;;10.00;7.90;;;;;;;19.53;79.90;97305.56;110170;1247;59698;-72
2022/08/07 00:09:21;;;;;;;9.20;8.20;;;;;;;19.49;78.95;97306.73;110073;1247;59679;-73
2022/08/07 00:12:04;;;;;;;9.50;7.60;;;;;;;19.45;78.83;97305.11;110152;1247;71502;-73
2022/08/07 00:14:34;;;;;;;9.20;7.50;;;;;;;19.42;80.08;97306.16;110265;1247;69398;-73
2022/08/07 00:17:03;;;;;;;8.60;7.30;;;;;;;19.40;78.98;97309.20;110209;1244;69412;-73
2022/08/07 00:19:34;;;;;;;10.50;7.40;;;;;;;19.37;77.91;97308.83;110201;1244;59677;-73
2022/08/07 00:22:23;;;;;;;9.70;8.20;;;;;;;19.33;77.37;97308.67;109827;1247;59632;-73
2022/08/07 00:25:05;;;;;;;10.40;8.20;;;;;;;19.29;80.42;97310.85;110253;1247;71092;-72
2022/08/07 00:27:38;;;;;;;10.40;7.70;;;;;;;19.24;78.38;97307.95;110113;1247;68869;-74
2022/08/07 00:30:24;;;;;;;8.80;7.60;;;;;;;19.14;78.07;97311.02;110206;1247;68485;-73
2022/08/07 00:32:57;;;;;;;12.40;9.20;;;;;;;19.04;80.39;97310.84;110160;1247;59761;-73
2022/08/07 00:35:28;;;;;;;10.60;8.00;;;;;;;18.95;83.54;97308.52;110021;1247;59634;-72
2022/08/07 00:37:59;;;;;;;10.40;9.10;;;;;;;18.89;83.46;97312.88;110081;1247;71660;-73
2022/08/07 00:40:30;;;;;;;11.50;8.50;;;;;;;18.81;84.86;97314.37;110019;1247;68733;-73
2022/08/07 00:43:08;;;;;;;;;;;;;;;18.76;83.98;97316.66;110385;1247;68455;-73
2022/08/07 00:46:00;;;;;;;10.80;8.00;;;;;;;18.72;84.90;97319.80;110074;1247;59708;-75
2022/08/07 00:48:30;;;;;;;10.10;7.80;;;;;;;18.67;83.21;97320.70;110096;1247;59713;-75
2022/08/07 00:51:01;;;;;;;14.40;9.60;;;;;;;18.63;83.41;97320.05;110425;1244;71515;-73
2022/08/07 00:53:31;;;;;;;10.10;8.20;;;;;;;18.61;82.32;97324.59;110592;1247;69619;-72
2022/08/07 00:56:22;;;;;;;9.50;8.30;;;;;;;18.64;83.75;97325.02;110443;1244;67501;-72
2022/08/07 00:58:59;;;;;;;9.90;8.40;;;;;;;18.64;82.00;97324.44;110430;1245;59713;-75
2022/08/07 01:01:30;;;;;;;11.00;8.50;;;;;;;18.63;80.74;97321.45;110451;1245;59676;-72
2022/08/07 01:04:17;;;;;;;8.70;7.10;;;;;;;18.59;82.10;97319.23;110674;1245;71520;-74
2022/08/07 01:06:56;;;;;;;12.90;9.00;;;;;;;18.56;81.46;97314.43;110201;1245;68418;-76
2022/08/07 01:09:28;;;;;;;10.50;8.90;;;;;;;18.52;83.48;97312.70;110290;1245;69236;-72
2022/08/07 01:12:19;;;;;;;11.00;9.40;;;;;;;18.48;85.11;97319.97;110325;1245;59750;-74
2022/08/07 01:15:01;;;;;;;11.40;9.00;;;;;;;18.44;85.70;97319.52;110374;1244;59615;-74
2022/08/07 01:17:34;;;;;;;11.00;9.00;;;;;;;18.41;85.07;97323.61;110361;1244;70568;-74
2022/08/07 01:20:12;;;;;;;10.30;7.80;;;;;;;18.39;84.78;97322.08;109163;1246;1439962;-73
2022/08/07 01:22:47;;;;;;;9.60;7.60;;;;;;;18.37;82.23;97317.87;110376;1244;68800;-73
2022/08/07 01:25:40;;;;;;;9.40;8.40;;;;;;;18.33;85.07;97317.55;110334;1244;60106;-75
2022/08/07 01:28:25;;;;;;;10.10;7.90;;;;;;;18.28;83.90;97315.00;110372;1244;60100;-74
2022/08/07 01:30:59;;;;;;;10.90;8.80;;;;;;;18.26;82.02;97315.30;110276;1244;70769;-74
2022/08/07 01:33:33;;;;;;;10.40;8.20;;;;;;;18.22;81.94;97313.17;110086;1244;69202;-75
2022/08/07 01:36:29;;;;;;;11.70;9.60;;;;;;;18.21;86.91;97315.81;110250;1247;68671;-73
2022/08/07 01:39:11;;;;;;;10.30;8.50;;;;;;;18.19;86.89;97319.78;110419;1244;59836;-72
2022/08/07 01:41:46;;;;;;;13.10;9.90;;;;;;;18.16;85.33;97322.48;110280;1244;59703;-75
2022/08/07 01:44:37;;;;;;;10.10;8.40;;;;;;;18.14;87.02;97321.69;110011;1247;71374;-73
2022/08/07 01:47:17;;;;;;;10.50;8.10;;;;;;;18.11;86.21;97322.17;110047;1246;69377;-73
2022/08/07 01:50:13;;;;;;;10.30;8.60;;;;;;;18.07;83.06;97319.09;110312;1245;69372;-75
2022/08/07 01:52:56;;;;;;;11.90;9.00;;;;;;;18.01;83.07;97320.59;110116;1247;59744;-74
2022/08/07 01:55:36;;;;;;;11.60;8.80;;;;;;;17.97;83.55;97318.91;110142;1247;59672;-73
2022/08/07 01:58:12;;;;;;;9.50;8.40;;;;;;;17.93;84.62;97319.34;110309;1244;70733;-74
2022/08/07 02:01:07;;;;;;;10.30;8.10;;;;;;;17.86;84.92;97320.56;110322;1244;69496;-74
2022/08/07 02:04:05;;;;;;;12.30;9.50;;;;;;;17.81;84.87;97322.63;110124;1245;69135;-73
2022/08/07 02:06:42;;;;;;;12.50;9.30;;;;;;;17.79;84.93;97330.08;110811;1247;59754;-74
2022/08/07 02:09:18;;;;;;;10.10;8.50;;;;;;;17.79;85.84;97332.21;110042;1249;59693;-73
2022/08/07 02:12:19;;;;;;;12.10;10.00;;;;;;;17.80;85.48;97328.62;111055;1247;69653;-71
2022/08/07 02:15:01;;;;;;;10.40;8.10;;;;;;;17.81;84.55;97328.98;110921;1247;68616;-73
2022/08/07 02:17:43;;;;;;;11.10;9.00;;;;;;;17.83;84.22;97324.91;110215;1248;69095;-73
2022/08/07 02:20:22;;;;;;;13.20;9.50;;;;;;;17.85;85.95;97325.85;110001;1248;59635;-72
2022/08/07 02:23:00;;;;;;;11.00;8.20;;;;;;;17.84;84.20;97323.23;109797;1247;59673;-72
2022/08/07 02:25:42;;;;;;;9.80;8.20;;;;;;;17.80;83.83;97325.07;110323;1247;71524;-72
2022/08/07 02:28:38;;;;;;;;;;;;;;;17.77;84.48;97324.00;110299;1247;68820;-74
2022/08/07 02:31:10;;;;;;;9.30;6.50;;;;;;;17.72;85.40;97322.16;110096;1249;69270;-72
2022/08/07 02:34:00;;;;;;;8.30;6.20;;;;;;;17.68;85.56;97324.48;109939;1247;59771;-73
2022/08/07 02:36:48;;;;;;;8.70;6.90;;;;;;;17.65;85.66;97325.00;110214;1247;59672;-73
2022/08/07 02:39:25;;;;;;;10.30;8.40;;;;;;;17.62;85.75;97325.13;110256;1247;71375;-74
2022/08/07 02:42:17;;;;;;;11.10;8.20;;;;;;;17.59;85.12;97323.68;110115;1248;68570;-73
2022/08/07 02:44:51;;;;;;;11.70;9.40;;;;;;;17.56;87.96;97326.91;110209;1247;68033;-74
2022/08/07 02:47:28;;;;;;;14.10;10.60;;;;;;;17.55;89.15;97327.73;110299;1246;59748;-73
2022/08/07 02:50:17;;;;;;;;;;;;;;;17.55;89.04;97330.10;110112;1247;59754;-74
2022/08/07 02:52:56;;;;;;;11.60;9.00;;;;;;;17.54;88.73;97332.14;110030;1247;71231;-71
2022/08/07 02:55:36;;;;;;;13.50;10.50;;;;;;;17.51;88.46;97329.23;110184;1247;69233;-72
2022/08/07 02:58:31;;;;;;;14.30;11.80;;;;;;;17.49;87.48;97335.92;110106;1247;69477;-73
2022/08/07 03:01:04;;;;;;;13.70;10.80;;;;;;;17.48;86.78;97338.49;110114;1247;61106;-71
2022/08/07 03:03:47;;;;;;;13.00;10.50;;;;;;;17.47;86.45;97336.51;110359;1247;60088;-72
2022/08/07 03:06:30;;;;;;;14.60;11.10;;;;;;;17.46;86.94;97340.68;110295;1247;70441;-75
2022/08/07 03:09:12;;;;;;;14.90;11.60;;;;;;;17.46;86.71;97341.90;110593;1245;68454;-72
2022/08/07 03:12:04;;;;;;;12.00;9.40;;;;;;;17.47;85.55;97345.13;110351;1245;69248;-71
2022/08/07 03:14:51;;;;;;;11.10;9.50;;;;;;;17.47;84.88;97345.36;110458;1244;59815;-73
2022/08/07 03:17:22;;;;;;;12.00;8.70;;;;;;;17.39;84.67;97349.20;110331;1245;59752;-73
2022/08/07 03:19:55;;;;;;;11.10;9.10;;;;;;;17.33;84.29;97351.84;110112;1244;71917;-73
2022/08/07 03:22:28;;;;;;;11.00;9.10;;;;;;;17.26;84.43;97355.22;110049;1249;68692;-73
2022/08/07 03:25:00;;;;;;;11.90;9.60;;;;;;;17.18;84.39;97355.47;110340;1244;67911;-73
2022/08/07 03:27:41;;;;;;;14.90;11.90;;;;;;;17.10;84.44;97359.86;110272;1245;59752;-73
2022/08/07 03:30:32;;;;;;;12.80;10.40;;;;;;;17.03;87.20;97359.64;110109;1245;59698;-72
2022/08/07 03:33:04;;;;;;;14.00;11.00;;;;;;;17.03;85.98;97355.20;110293;1246;71104;-74
2022/08/07 03:35:42;;;;;;;13.30;9.90;;;;;;;17.06;87.13;97355.84;110210;1246;69192;-74
2022/08/07 03:38:20;;;;;;;16.70;11.80;;;;;;;17.10;86.92;97359.96;110220;1246;69396;-74
2022/08/07 03:41:02;;;;;;;11.70;9.20;;;;;;;17.14;86.72;97359.04;110289;1244;59754;-73
2022/08/07 03:43:34;;;;;;;13.60;10.60;;;;;;;17.19;85.69;97363.36;110273;1247;59678;-72
2022/08/07 03:46:06;;;;;;;14.20;10.90;;;;;;;17.23;86.13;97363.59;110209;1247;71597;-73
2022/08/07 03:48:49;;;;;;;10.50;8.70;;;;;;;17.27;86.59;97365.27;110425;1244;69439;-74
2022/08/07 03:51:37;;;;;;;11.70;9.70;;;;;;;17.34;85.75;97367.30;110574;1247;68681;-74
2022/08/07 03:54:17;;;;;;;11.60;9.80;;;;;;;17.39;85.26;97368.21;110402;1244;59776;-74
2022/08/07 03:57:12;;;;;;;12.00;8.70;;;;;;;17.45;85.30;97371.20;110408;1245;59697;-74
2022/08/07 04:00:05;;;;;;;11.90;10.10;;;;;;;17.54;85.70;97367.32;110443;1244;71567;-74
2022/08/07 04:02:46;;;;;;;10.90;9.30;;;;;;;17.61;84.55;97370.38;110314;1247;68750;-73
2022/08/07 04:05:29;;;;;;;12.20;10.40;;;;;;;17.67;84.78;97375.66;110420;1244;70120;-73
2022/08/07 04:08:15;;;;;;;10.90;9.30;;;;;;;17.76;84.19;97372.52;109927;1248;59760;-74
2022/08/07 04:10:48;;;;;;;8.90;7.80;;;;;;;17.85;83.68;97373.69;110442;1247;59693;-74
2022/08/07 04:13:40;;;;;;;11.70;9.30;;;;;;;17.97;82.85;97373.63;110719;1246;70688;-72
2022/08/07 04:16:32;;;;;;;12.40;9.50;;;;;;;18.11;82.70;97378.48;110374;1245;68602;-75
2022/08/07 04:19:06;;;;;;;12.30;9.70;;;;;;;18.20;82.92;97384.87;109950;1250;68661;-73
2022/08/07 04:21:48;;;;;;;10.40;9.20;;;;;;;18.32;82.37;97383.33;110375;1245;59779;-75
2022/08/07 04:24:30;;;;;;;10.90;9.00;;;;;;;18.45;81.64;97388.95;109956;1250;59714;-74
2022/08/07 04:27:09;;;;;;;8.60;7.50;;;;;;;18.64;81.48;97390.46;110337;1246;71503;-75
2022/08/07 04:29:49;;;;;;;10.90;9.10;;;;;;;18.90;81.38;97387.24;110406;1247;69377;-74
2022/08/07 04:32:45;;;;;;;9.60;8.40;;;;;;;19.08;79.55;97385.66;110250;1247;69355;-73
2022/08/07 04:35:18;;;;;;;12.20;9.40;;;;;;;19.20;79.37;97387.87;110212;1247;59808;-75
2022/08/07 04:37:50;;;;;;;9.80;8.30;;;;;;;19.29;78.36;97389.23;110295;1247;59680;-74
2022/08/07 04:40:42;;;;;;;10.50;9.30;;;;;;;19.40;77.73;97392.48;110331;1244;71740;-75
2022/08/07 04:43:30;;;;;;;11.40;8.70;;;;;;;19.46;77.06;97390.84;110417;1247;69168;-77
2022/08/07 04:46:25;;;;;;;10.60;7.80;;;;;;;19.53;76.89;97399.23;110134;1247;69453;-74
2022/08/07 04:49:13;;;;;;;10.70;9.00;;;;;;;19.64;76.05;97398.14;110001;1247;59707;-75
2022/08/07 04:52:24;;;;;;;10.40;8.70;;;;;;;19.69;75.67;97398.02;110226;1247;60142;-75
2022/08/07 04:55:05;;;;;;;9.10;7.80;;;;;;;19.85;75.23;97397.38;110142;1247;70783;-74
2022/08/07 04:57:59;;;;;;;10.50;8.30;;;;;;;20.04;74.86;97402.46;110548;1245;68023;-74
2022/08/07 05:01:07;;;;;;;12.90;11.10;;;;;;;20.28;74.17;97402.47;110333;1245;68616;-76
2022/08/07 05:04:08;;;;;;;25.90;20.30;;;;;;;20.61;74.67;97404.89;110231;1247;59704;-74
2022/08/07 05:06:52;;;;;;;44.70;28.30;;;;;;;20.96;72.47;97404.80;110458;1245;59716;-75
2022/08/07 05:09:59;;;;;;;122.00;71.60;;;;;;;21.34;73.79;97406.77;110446;1246;70841;-76
2022/08/07 05:12:41;;;;;;;147.20;90.40;;;;;;;21.74;69.88;97412.05;109673;1250;69624;-74
2022/08/07 05:15:30;;;;;;;130.20;97.60;;;;;;;22.03;67.11;97414.10;110490;1245;69429;-75
2022/08/07 05:18:13;;;;;;;126.50;95.20;;;;;;;22.26;67.09;97418.81;110346;1247;59695;-75
2022/08/07 05:20:46;;;;;;;108.50;81.30;;;;;;;22.48;65.32;97418.61;110235;1247;60153;-77
2022/08/07 05:23:24;;;;;;;101.30;79.60;;;;;;;22.64;63.63;97421.09;110377;1247;70761;-78
2022/08/07 05:26:01;;;;;;;91.60;69.60;;;;;;;22.74;63.32;97416.09;110564;1245;68586;-79
2022/08/07 05:28:52;;;;;;;43.80;30.70;;;;;;;23.16;62.98;97414.66;110477;1247;68594;-79
2022/08/07 05:31:28;;;;;;;29.40;22.10;;;;;;;23.50;61.80;97415.23;110376;1247;59581;-78
2022/08/07 05:34:13;;;;;;;18.20;14.20;;;;;;;23.88;61.42;97416.25;110357;1247;59749;-79
2022/08/07 05:36:51;;;;;;;11.00;9.20;;;;;;;24.09;59.89;97413.08;110470;1247;71927;-78
2022/08/07 05:39:27;;;;;;;8.00;6.80;;;;;;;24.51;59.47;97416.39;110727;1245;68581;-78
2022/08/07 05:42:17;;;;;;;7.80;6.90;;;;;;;24.92;58.37;97414.44;110303;1244;69046;-76
2022/08/07 05:45:05;;;;;;;7.60;6.00;;;;;;;25.29;57.31;97418.42;110183;1247;59748;-79
2022/08/07 05:47:57;;;;;;;9.10;6.10;;;;;;;25.55;55.85;97417.45;110264;1247;59726;-78
2022/08/07 05:50:42;;;;;;;7.70;6.90;;;;;;;25.81;56.72;97420.86;110450;1247;71341;-77
2022/08/07 05:53:13;;;;;;;7.50;6.40;;;;;;;25.99;54.13;97421.60;110439;1244;69378;-79
2022/08/07 05:56:03;;;;;;;;;;;;;;;26.37;54.51;97420.17;110536;1247;68272;-76
2022/08/07 05:58:40;;;;;;;8.30;7.30;;;;;;;26.40;53.32;97421.03;110382;1247;59668;-76
2022/08/07 06:01:21;;;;;;;7.20;6.40;;;;;;;26.76;54.91;97423.46;110502;1247;59824;-75
2022/08/07 06:03:55;;;;;;;7.80;7.00;;;;;;;27.15;52.93;97413.22;110291;1247;70909;-76
2022/08/07 06:06:35;;;;;;;8.00;6.90;;;;;;;27.50;53.13;97417.35;110137;1247;68892;-75
2022/08/07 06:09:07;;;;;;;8.20;7.10;;;;;;;27.80;51.95;97415.67;110279;1247;69857;-76
2022/08/07 06:11:41;;;;;;;8.70;7.40;;;;;;;27.86;50.78;97413.74;110047;1248;59782;-78
2022/08/07 06:14:11;;;;;;;8.00;7.10;;;;;;;28.05;49.88;97416.06;110289;1247;59788;-77
2022/08/07 06:16:54;;;;;;;7.50;6.60;;;;;;;28.24;49.58;97420.65;110381;1247;71835;-77
2022/08/07 06:19:28;;;;;;;7.30;6.60;;;;;;;28.47;49.58;97422.05;110381;1247;69435;-76
2022/08/07 06:22:18;;;;;;;6.80;6.10;;;;;;;28.75;49.41;97426.30;110344;1247;67840;-77
2022/08/07 06:25:18;;;;;;;6.90;6.00;;;;;;;28.88;47.63;97419.88;110508;1247;59809;-78
2022/08/07 06:27:49;;;;;;;7.90;7.10;;;;;;;29.00;47.03;97418.64;110563;1247;59679;-77
2022/08/07 06:30:31;;;;;;;9.90;8.60;;;;;;;29.10;47.48;97418.70;110208;1247;71146;-77
2022/08/07 06:33:13;;;;;;;;;;;;;;;29.16;46.93;97418.97;110489;1244;69158;-77
2022/08/07 06:35:46;;;;;;;7.80;6.90;;;;;;;29.28;47.96;97419.13;110238;1247;68519;-79
2022/08/07 06:38:36;;;;;;;7.70;7.00;;;;;;;29.49;46.71;97413.70;110279;1247;59712;-78
2022/08/07 06:41:11;;;;;;;8.00;7.20;;;;;;;29.61;46.40;97416.35;110575;1247;59686;-80
2022/08/07 06:43:45;;;;;;;7.30;6.60;;;;;;;29.58;46.16;97417.67;110701;1247;71549;-78
2022/08/07 06:46:34;;;;;;;12.30;7.30;;;;;;;29.75;45.82;97412.96;110484;1247;69044;-78
2022/08/07 06:49:07;;;;;;;7.30;6.60;;;;;;;29.76;45.65;97409.02;110128;1248;68525;-78
2022/08/07 06:51:39;;;;;;;7.80;7.10;;;;;;;29.74;45.57;97412.23;110526;1245;59670;-79
2022/08/07 06:54:20;;;;;;;7.60;6.80;;;;;;;29.97;44.58;97413.84;110510;1245;59697;-78
2022/08/07 06:57:10;;;;;;;6.30;5.70;;;;;;;30.32;43.26;97417.04;110311;1244;70816;-79
2022/08/07 06:59:43;;;;;;;6.60;5.70;;;;;;;30.52;42.42;97417.52;110161;1247;68920;-78
2022/08/07 07:02:33;;;;;;;7.10;6.50;;;;;;;30.66;42.36;97418.55;110253;1247;69485;-79
2022/08/07 07:05:20;;;;;;;7.20;6.40;;;;;;;30.86;41.82;97417.77;110282;1245;59742;-77
2022/08/07 07:08:11;;;;;;;6.60;6.00;;;;;;;31.25;41.98;97414.84;110267;1244;59669;-79
2022/08/07 07:10:53;;;;;;;7.60;6.60;;;;;;;31.37;40.99;97413.70;110388;1247;70823;-80
2022/08/07 07:13:43;;;;;;;7.40;6.80;;;;;;;31.48;40.41;97413.98;110275;1244;69373;-78
2022/08/07 07:16:35;;;;;;;8.00;7.20;;;;;;;31.64;40.21;97411.94;110318;1248;68663;-78
2022/08/07 07:19:24;;;;;;;7.60;7.00;;;;;;;31.87;39.95;97410.73;110282;1247;59714;-79
2022/08/07 07:22:15;;;;;;;8.10;7.30;;;;;;;32.03;38.24;97413.35;110167;1248;59691;-77
2022/08/07 07:25:06;;;;;;;7.70;7.00;;;;;;;32.00;38.53;97414.36;110439;1247;71544;-79
2022/08/07 07:28:17;;;;;;;7.80;7.10;;;;;;;32.07;38.97;97414.44;110149;1249;70726;-78
2022/08/07 07:31:19;;;;;;;7.30;6.60;;;;;;;32.35;38.17;97421.98;110241;1247;69488;-77
2022/08/07 07:33:53;;;;;;;7.70;7.00;;;;;;;32.54;36.96;97421.53;110135;1247;59744;-78
2022/08/07 07:36:27;;;;;;;7.20;6.50;;;;;;;32.35;37.09;97425.23;110268;1247;59721;-78
2022/08/07 07:39:02;;;;;;;7.70;7.00;;;;;;;32.36;36.73;97422.25;110258;1247;71724;-78
2022/08/07 07:41:33;;;;;;;6.90;6.30;;;;;;;32.42;35.88;97422.63;110363;1247;69353;-78
2022/08/07 07:44:24;;;;;;;6.70;6.10;;;;;;;32.72;36.40;97427.03;110581;1247;69659;-77
2022/08/07 07:46:56;;;;;;;8.20;7.30;;;;;;;33.10;36.63;97431.77;110238;1247;60069;-78
2022/08/07 07:49:47;;;;;;;7.80;7.00;;;;;;;33.11;36.05;97433.11;110220;1247;59735;-78
2022/08/07 07:52:38;;;;;;;8.60;7.80;;;;;;;33.08;35.95;97434.34;110203;1248;71810;-77
2022/08/07 07:55:09;;;;;;;7.70;7.00;;;;;;;32.87;34.92;97430.95;110249;1248;69200;-79
2022/08/07 07:57:39;;;;;;;7.70;7.00;;;;;;;33.15;35.24;97429.96;110236;1247;69231;-76
2022/08/07 08:00:22;;;;;;;7.60;6.90;;;;;;;33.38;34.88;97427.65;110245;1247;59651;-78
2022/08/07 08:03:05;;;;;;;7.50;6.80;;;;;;;33.63;35.21;97425.60;110249;1247;59681;-79
2022/08/07 08:05:38;;;;;;;7.20;6.50;;;;;;;34.01;33.35;97427.32;110183;1247;71450;-77
2022/08/07 08:08:25;;;;;;;7.40;6.70;;;;;;;34.15;31.20;97421.64;110191;1248;69947;-78
2022/08/07 08:11:05;;;;;;;7.20;6.60;;;;;;;34.24;32.03;97416.98;110106;1250;69843;-77
2022/08/07 08:13:43;;;;;;;7.20;6.40;;;;;;;34.26;30.81;97418.54;110216;1247;59751;-77
2022/08/07 08:16:36;;;;;;;7.60;6.90;;;;;;;34.23;31.01;97419.52;110206;1247;59729;-77
2022/08/07 08:19:09;;;;;;;7.00;6.30;;;;;;;34.22;30.69;97416.48;110227;1248;71374;-77
2022/08/07 08:27:57;;;;;;;7.40;6.40;;;;;;;34.47;30.71;97423.02;110397;1247;60192;-78
2022/08/07 08:30:33;;;;;;;6.50;5.90;;;;;;;34.47;30.37;97428.45;110269;1248;59816;-79
2022/08/07 08:33:17;;;;;;;6.80;6.20;;;;;;;34.57;30.38;97429.59;110137;1250;71358;-78
2022/08/07 08:35:54;;;;;;;7.30;6.70;;;;;;;34.54;29.93;97428.77;110220;1248;68881;-78
2022/08/07 08:38:27;;;;;;;7.60;7.00;;;;;;;34.30;29.83;97425.36;110346;1249;70022;-77
2022/08/07 08:41:41;;;;;;;7.70;7.00;;;;;;;34.25;30.37;97417.46;110362;1247;59757;-79
2022/08/07 08:44:39;;;;;;;6.80;6.20;;;;;;;34.35;29.11;97422.47;110311;1248;58878;-79
2022/08/07 08:47:54;;;;;;;6.50;5.90;;;;;;;34.66;28.80;97421.85;110062;1248;71379;-79
2022/08/07 08:50:34;;;;;;;6.60;6.00;;;;;;;34.56;28.72;97426.05;110245;1247;68789;-79
2022/08/07 08:53:19;;;;;;;7.30;6.60;;;;;;;34.93;29.84;97427.05;110187;1247;69280;-78
2022/08/07 08:55:56;;;;;;;6.50;5.90;;;;;;;35.53;29.37;97420.98;110450;1247;59737;-78
2022/08/07 08:59:04;;;;;;;6.70;5.90;;;;;;;35.99;27.36;97416.89;110263;1247;59707;-78
2022/08/07 09:02:12;;;;;;;6.50;5.90;;;;;;;36.41;27.54;97412.60;110376;1247;71481;-79
2022/08/07 09:05:01;;;;;;;6.10;5.50;;;;;;;36.55;26.93;97409.98;110420;1246;68487;-78
2022/08/07 09:07:48;;;;;;;7.20;6.60;;;;;;;36.73;27.44;97409.70;110119;1246;68286;-77
2022/08/07 09:10:43;;;;;;;6.90;6.30;;;;;;;37.27;26.11;97410.44;110356;1246;59812;-78
2022/08/07 09:13:26;;;;;;;7.20;6.60;;;;;;;37.60;25.19;97411.02;110411;1244;59634;-79
2022/08/07 09:16:28;;;;;;;6.80;6.20;;;;;;;37.47;25.51;97410.86;110313;1247;71363;-78
2022/08/07 09:19:23;;;;;;;7.10;6.40;;;;;;;37.46;24.68;97410.36;110131;1246;69385;-79
2022/08/07 09:22:33;;;;;;;7.10;6.50;;;;;;;37.16;24.48;97409.36;110312;1247;68628;-78
2022/08/07 09:25:46;;;;;;;6.80;6.20;;;;;;;37.05;25.41;97407.71;109902;1248;59812;-79
2022/08/07 09:28:37;;;;;;;6.70;6.00;;;;;;;37.56;24.56;97406.47;110378;1247;60184;-77
2022/08/07 09:32:01;;;;;;;6.70;6.10;;;;;;;37.35;25.49;97396.59;110273;1247;73016;-80
2022/08/07 09:35:13;;;;;;;9.70;9.00;;;;;;;37.35;25.33;97398.99;110296;1248;70364;-78
2022/08/07 09:38:46;;;;;;;7.20;6.60;;;;;;;37.00;25.74;97405.16;110409;1248;69932;-77
2022/08/07 09:41:44;;;;;;;5.70;5.20;;;;;;;36.93;26.16;97394.84;110736;1250;59758;-78
2022/08/07 09:45:16;;;;;;;6.80;6.20;;;;;;;36.88;25.79;97394.77;110252;1245;59687;-78
2022/08/07 09:48:44;;;;;;;6.70;6.10;;;;;;;36.96;26.74;97393.14;110166;1247;71737;-79
2022/08/07 09:52:29;;;;;;;7.90;7.20;;;;;;;37.49;25.72;97389.63;110118;1247;70810;-77
2022/08/07 09:55:22;;;;;;;7.10;6.50;;;;;;;37.13;24.75;97380.77;109931;1247;70397;-78
2022/08/07 09:58:39;;;;;;;5.60;5.10;;;;;;;37.09;24.74;97375.99;110126;1247;59797;-79
2022/08/07 10:02:02;;;;;;;7.10;6.50;;;;;;;38.08;24.74;97374.57;110048;1247;59748;-76
2022/08/07 10:05:02;;;;;;;5.40;4.90;;;;;;;38.39;24.15;97377.62;110330;1247;71783;-78
2022/08/07 10:07:58;;;;;;;5.20;4.70;;;;;;;38.81;23.31;97377.02;110130;1247;70219;-79
2022/08/07 10:10:56;;;;;;;5.80;5.30;;;;;;;39.10;22.77;97374.70;110233;1247;68676;-78
2022/08/07 10:14:22;;;;;;;6.00;5.50;;;;;;;39.26;23.17;97377.85;110248;1247;59681;-78
2022/08/07 10:17:13;;;;;;;6.00;5.50;;;;;;;39.63;22.52;97373.27;110221;1247;59798;-78
2022/08/07 10:20:08;;;;;;;6.20;5.30;;;;;;;39.85;21.37;97368.77;110374;1247;70645;-77
2022/08/07 10:23:09;;;;;;;5.60;5.10;;;;;;;39.00;21.36;97370.65;110468;1247;68438;-77
2022/08/07 10:25:57;;;;;;;6.90;6.20;;;;;;;38.66;22.51;97367.65;110407;1246;68464;-77
2022/08/07 10:28:42;;;;;;;6.40;5.80;;;;;;;38.13;22.83;97362.39;110261;1247;59818;-78
2022/08/07 10:31:52;;;;;;;6.20;5.70;;;;;;;38.02;23.50;97356.67;110345;1247;59699;-76
2022/08/07 10:34:53;;;;;;;5.80;5.30;;;;;;;38.43;23.14;97358.19;110238;1248;71335;-72
2022/08/07 10:37:57;;;;;;;5.20;4.80;;;;;;;38.71;22.22;97357.61;110316;1247;69323;-79
2022/08/07 10:40:55;;;;;;;5.40;4.90;;;;;;;39.02;21.78;97355.25;110369;1247;68618;-76
2022/08/07 10:43:32;;;;;;;5.40;4.90;;;;;;;38.92;21.43;97350.48;110204;1247;59715;-77
2022/08/07 10:46:23;;;;;;;5.00;4.60;;;;;;;38.61;22.97;97352.10;110221;1247;59682;-77
2022/08/07 10:49:13;;;;;;;4.90;4.50;;;;;;;38.96;20.92;97350.59;110192;1247;71374;-77
2022/08/07 10:52:04;;;;;;;5.50;4.70;;;;;;;39.00;20.86;97351.46;110429;1246;69210;-75
2022/08/07 10:54:52;;;;;;;5.10;4.60;;;;;;;38.84;20.21;97351.45;110274;1247;69221;-76
2022/08/07 10:57:41;;;;;;;5.20;4.70;;;;;;;38.75;20.77;97347.98;110447;1246;59764;-76
2022/08/07 11:00:15;;;;;;;5.30;4.80;;;;;;;38.67;20.76;97347.17;110447;1247;59753;-77
2022/08/07 11:03:24;;;;;;;5.60;4.80;;;;;;;38.73;21.92;97344.48;110456;1247;71370;-76
2022/08/07 11:06:39;;;;;;;4.60;4.20;;;;;;;39.15;21.19;97341.12;110187;1247;68996;-78
2022/08/07 11:09:43;;;;;;;4.90;4.50;;;;;;;39.44;21.11;97337.26;110328;1245;69350;-77
2022/08/07 11:12:37;;;;;;;4.80;4.30;;;;;;;39.76;20.79;97330.87;110265;1247;59707;-77
2022/08/07 11:15:21;;;;;;;5.10;4.70;;;;;;;40.18;19.91;97325.09;110462;1246;59688;-76
2022/08/07 11:18:13;;;;;;;4.30;3.90;;;;;;;40.18;19.68;97321.75;110250;1247;71543;-77
2022/08/07 11:21:01;;;;;;;5.40;4.90;;;;;;;40.27;19.36;97319.59;110398;1245;69305;-76
2022/08/07 11:23:56;;;;;;;5.00;4.60;;;;;;;40.18;19.29;97316.59;110470;1247;69309;-75
2022/08/07 11:26:38;;;;;;;6.00;5.50;;;;;;;40.06;19.19;97312.98;110298;1246;59743;-77
2022/08/07 11:29:34;;;;;;;4.90;4.40;;;;;;;39.37;19.87;97305.13;110431;1247;59681;-77
2022/08/07 11:32:16;;;;;;;4.60;4.20;;;;;;;39.54;20.32;97301.27;110771;1247;71441;-75
2022/08/07 11:35:01;;;;;;;5.10;4.50;;;;;;;38.68;20.28;97302.80;110358;1247;68396;-77
2022/08/07 11:37:54;;;;;;;5.20;4.80;;;;;;;37.84;21.29;97298.59;110421;1247;69222;-75
2022/08/07 11:40:48;;;;;;;4.70;4.30;;;;;;;37.74;22.27;97289.48;110289;1247;59709;-77
2022/08/07 11:43:54;;;;;;;4.20;3.80;;;;;;;37.89;22.24;97287.58;110139;1247;59771;-74
2022/08/07 11:47:03;;;;;;;5.30;4.80;;;;;;;38.16;22.46;97289.84;110500;1245;71539;-78
2022/08/07 11:50:11;;;;;;;5.50;4.60;;;;;;;38.46;22.56;97287.00;110553;1247;69857;-75
2022/08/07 11:53:15;;;;;;;4.80;4.40;;;;;;;38.87;22.55;97283.23;110616;1247;69429;-77
2022/08/07 11:56:16;;;;;;;4.80;4.40;;;;;;;39.30;21.34;97276.32;110519;1247;59739;-77
2022/08/07 11:59:09;;;;;;;4.80;4.40;;;;;;;39.49;20.11;97274.77;110142;1247;59696;-78
2022/08/07 12:02:37;;;;;;;5.30;4.90;;;;;;;39.92;20.38;97268.67;110135;1247;73036;-77
2022/08/07 12:05:44;;;;;;;5.60;5.10;;;;;;;39.72;19.91;97273.02;110206;1249;70417;-75
2022/08/07 12:08:25;;;;;;;5.20;4.60;;;;;;;38.73;20.24;97274.55;110277;1247;69460;-77
2022/08/07 12:11:14;;;;;;;4.60;4.20;;;;;;;38.41;21.68;97267.70;110192;1246;59742;-77
2022/08/07 12:14:28;;;;;;;5.50;4.70;;;;;;;38.54;21.46;97268.80;110364;1246;59763;-77
2022/08/07 12:17:07;;;;;;;5.70;4.80;;;;;;;38.63;21.17;97264.96;110300;1247;70623;-78
2022/08/07 12:20:01;;;;;;;6.10;5.60;;;;;;;38.34;21.57;97265.05;110332;1247;69831;-78
2022/08/07 12:23:11;;;;;;;4.60;4.20;;;;;;;38.01;22.08;97258.10;110496;1247;69419;-77
2022/08/07 12:25:55;;;;;;;5.70;5.20;;;;;;;38.18;21.50;97257.05;110398;1246;59748;-77
2022/08/07 12:28:55;;;;;;;5.40;4.90;;;;;;;38.11;22.26;97249.67;110310;1247;59711;-76
2022/08/07 12:31:33;;;;;;;5.40;4.90;;;;;;;38.15;22.42;97246.12;110224;1246;70703;-78
2022/08/07 12:34:22;;;;;;;7.00;5.30;;;;;;;37.92;22.98;97246.36;110176;1247;70277;-77
2022/08/07 12:36:56;;;;;;;5.60;5.10;;;;;;;37.66;22.76;97242.23;110325;1247;68220;-79
2022/08/07 12:39:29;;;;;;;4.90;4.40;;;;;;;37.28;23.98;97235.20;110267;1247;59710;-78
2022/08/07 12:42:17;;;;;;;4.90;4.30;;;;;;;37.66;23.24;97237.06;110365;1247;59770;-77
2022/08/07 12:44:59;;;;;;;5.80;5.30;;;;;;;37.69;21.91;97232.81;110300;1247;70736;-78
2022/08/07 12:47:55;;;;;;;5.80;5.30;;;;;;;37.38;21.83;97226.60;110419;1246;69815;-77
2022/08/07 12:50:43;;;;;;;5.20;4.40;;;;;;;37.05;22.42;97224.96;110252;1247;69272;-77
2022/08/07 12:53:16;;;;;;;5.00;4.50;;;;;;;37.06;22.93;97225.23;110233;1247;59699;-77
2022/08/07 12:56:22;;;;;;;5.40;4.80;;;;;;;37.16;23.14;97226.65;110253;1247;59661;-78
2022/08/07 12:58:55;;;;;;;5.10;4.70;;;;;;;37.23;23.75;97224.02;110255;1247;70495;-78